sensor_id;sensor_type;location;lat;lon;timestamp;pressure;altitude;pressure_sealevel;temperature;humidity
39769;BME280;38939;47.824;14.642;2022-08-25T00:00:46;97150.47;;;18.11;85.58
39769;BME280;38939;47.824;14.642;2022-08-25T00:01:54;97151.31;;;18.12;85.42
39769;BME280;38939;47.824;14.642;2022-08-25T00:02:56;97142.31;;;18.13;85.44
39769;BME280;38939;47.824;14.642;2022-08-25T00:04:00;97138.66;;;18.14;85.29
39769;BME280;38939;47.824;14.642;2022-08-25T00:05:03;97146.56;;;18.14;85.27
39769;BME280;38939;47.824;14.642;2022-08-25T00:06:06;97142.31;;;18.13;85.13
39769;BME280;38939;47.824;14.642;2022-08-25T00:07:08;97151.03;;;18.13;85.21
39769;BME280;38939;47.824;14.642;2022-08-25T00:08:11;97147.59;;;18.13;85.47
39769;BME280;38939;47.824;14.642;2022-08-25T00:09:14;97152.09;;;18.12;85.50
39769;BME280;38939;47.824;14.642;2022-08-25T00:10:16;97144.66;;;18.09;85.76
39769;BME280;38939;47.824;14.642;2022-08-25T00:11:20;97151.78;;;18.09;85.69
39769;BME280;38939;47.824;14.642;2022-08-25T00:12:22;97148.81;;;18.05;85.18
39769;BME280;38939;47.824;14.642;2022-08-25T00:13:24;97149.88;;;18.04;85.27
39769;BME280;38939;47.824;14.642;2022-08-25T00:14:28;97144.03;;;18.02;85.47
39769;BME280;38939;47.824;14.642;2022-08-25T00:15:30;97144.03;;;18.02;85.39
39769;BME280;38939;47.824;14.642;2022-08-25T00:16:32;97142.19;;;18.03;85.68
39769;BME280;38939;47.824;14.642;2022-08-25T00:17:35;97153.53;;;18.03;85.82
39769;BME280;38939;47.824;14.642;2022-08-25T00:18:37;97140.34;;;18.03;85.73
39769;BME280;38939;47.824;14.642;2022-08-25T00:19:39;97141.94;;;18.04;85.88
39769;BME280;38939;47.824;14.642;2022-08-25T00:20:41;97141.72;;;18.06;85.90
39769;BME280;38939;47.824;14.642;2022-08-25T00:21:49;97139.63;;;18.08;85.84
39769;BME280;38939;47.824;14.642;2022-08-25T00:22:51;97136.16;;;18.07;86.47
39769;BME280;38939;47.824;14.642;2022-08-25T00:23:53;97139.00;;;18.01;87.47
39769;BME280;38939;47.824;14.642;2022-08-25T00:24:55;97136.53;;;17.94;87.80
39769;BME280;38939;47.824;14.642;2022-08-25T00:25:57;97138.34;;;17.93;87.81
39769;BME280;38939;47.824;14.642;2022-08-25T00:26:59;97141.00;;;17.93;87.57
39769;BME280;38939;47.824;14.642;2022-08-25T00:28:02;97139.19;;;17.94;87.52
39769;BME280;38939;47.824;14.642;2022-08-25T00:29:09;97136.78;;;17.92;87.21
39769;BME280;38939;47.824;14.642;2022-08-25T00:30:11;97138.63;;;17.92;87.21
39769;BME280;38939;47.824;14.642;2022-08-25T00:31:17;97138.34;;;17.93;87.11
39769;BME280;38939;47.824;14.642;2022-08-25T00:32:20;97140.75;;;17.95;87.06
39769;BME280;38939;47.824;14.642;2022-08-25T00:33:22;97141.06;;;17.98;86.70
39769;BME280;38939;47.824;14.642;2022-08-25T00:34:26;97135.56;;;18.00;86.61
39769;BME280;38939;47.824;14.642;2022-08-25T00:35:28;97137.38;;;17.99;86.92
39769;BME280;38939;47.824;14.642;2022-08-25T00:36:30;97136.13;;;18.02;86.82
39769;BME280;38939;47.824;14.642;2022-08-25T00:37:32;97135.84;;;18.04;86.78
39769;BME280;38939;47.824;14.642;2022-08-25T00:38:34;97135.38;;;18.07;86.72
39769;BME280;38939;47.824;14.642;2022-08-25T00:39:38;97138.03;;;18.07;86.65
39769;BME280;38939;47.824;14.642;2022-08-25T00:40:40;97130.09;;;18.07;86.78
39769;BME280;38939;47.824;14.642;2022-08-25T00:41:42;97129.06;;;18.08;86.73
39769;BME280;38939;47.824;14.642;2022-08-25T00:42:44;97132.50;;;18.08;86.71
39769;BME280;38939;47.824;14.642;2022-08-25T00:43:51;97127.78;;;18.10;86.67
39769;BME280;38939;47.824;14.642;2022-08-25T00:44:54;97124.06;;;18.11;86.64
39769;BME280;38939;47.824;14.642;2022-08-25T00:45:56;97125.69;;;18.12;86.86
39769;BME280;38939;47.824;14.642;2022-08-25T00:46:59;97136.25;;;18.12;86.77
39769;BME280;38939;47.824;14.642;2022-08-25T00:48:01;97134.63;;;18.11;86.94
39769;BME280;38939;47.824;14.642;2022-08-25T00:49:15;97138.09;;;18.12;87.08
39769;BME280;38939;47.824;14.642;2022-08-25T00:50:26;97130.72;;;18.14;86.90
39769;BME280;38939;47.824;14.642;2022-08-25T00:51:34;97135.50;;;18.17;86.96
39769;BME280;38939;47.824;14.642;2022-08-25T00:52:39;97133.66;;;18.17;86.61
39769;BME280;38939;47.824;14.642;2022-08-25T00:53:43;97135.75;;;18.15;87.23
39769;BME280;38939;47.824;14.642;2022-08-25T00:55:50;97142.28;;;18.08;87.48
39769;BME280;38939;47.824;14.642;2022-08-25T00:56:52;97139.06;;;18.06;87.41
39769;BME280;38939;47.824;14.642;2022-08-25T00:58:57;97142.50;;;18.06;87.34
39769;BME280;38939;47.824;14.642;2022-08-25T01:00:00;97139.88;;;18.06;87.07
39769;BME280;38939;47.824;14.642;2022-08-25T01:01:04;97140.44;;;18.08;86.88
39769;BME280;38939;47.824;14.642;2022-08-25T01:02:06;97142.81;;;18.10;86.68
39769;BME280;38939;47.824;14.642;2022-08-25T01:03:14;97140.75;;;18.12;87.07
39769;BME280;38939;47.824;14.642;2022-08-25T01:04:16;97134.63;;;18.11;87.09
39769;BME280;38939;47.824;14.642;2022-08-25T01:05:18;97132.56;;;18.13;86.68
39769;BME280;38939;47.824;14.642;2022-08-25T01:06:21;97125.19;;;18.15;86.57
39769;BME280;38939;47.824;14.642;2022-08-25T01:07:24;97128.38;;;18.17;86.66
39769;BME280;38939;47.824;14.642;2022-08-25T01:08:26;97130.00;;;18.18;86.60
39769;BME280;38939;47.824;14.642;2022-08-25T01:09:32;97127.91;;;18.21;86.48
39769;BME280;38939;47.824;14.642;2022-08-25T01:10:35;97132.13;;;18.22;86.42
39769;BME280;38939;47.824;14.642;2022-08-25T01:11:37;97133.19;;;18.21;86.68
39769;BME280;38939;47.824;14.642;2022-08-25T01:12:39;97132.63;;;18.18;87.31
39769;BME280;38939;47.824;14.642;2022-08-25T01:13:45;97124.72;;;18.18;87.30
39769;BME280;38939;47.824;14.642;2022-08-25T01:14:48;97128.94;;;18.19;86.93
39769;BME280;38939;47.824;14.642;2022-08-25T01:15:53;97131.56;;;18.19;87.15
39769;BME280;38939;47.824;14.642;2022-08-25T01:16:55;97121.00;;;18.19;86.95
39769;BME280;38939;47.824;14.642;2022-08-25T01:17:58;97118.38;;;18.19;86.92
39769;BME280;38939;47.824;14.642;2022-08-25T01:19:01;97121.56;;;18.22;87.07
39769;BME280;38939;47.824;14.642;2022-08-25T01:20:03;97121.56;;;18.22;87.22
39769;BME280;38939;47.824;14.642;2022-08-25T01:21:05;97120.22;;;18.19;87.38
39769;BME280;38939;47.824;14.642;2022-08-25T01:22:07;97112.28;;;18.19;87.27
39769;BME280;38939;47.824;14.642;2022-08-25T01:23:11;97121.00;;;18.19;87.16
39769;BME280;38939;47.824;14.642;2022-08-25T01:24:36;97118.88;;;18.16;87.17
39769;BME280;38939;47.824;14.642;2022-08-25T01:25:44;97113.50;;;18.11;86.89
39769;BME280;38939;47.824;14.642;2022-08-25T01:26:48;97115.59;;;18.09;86.56
39769;BME280;38939;47.824;14.642;2022-08-25T01:27:50;97116.41;;;18.10;86.72
39769;BME280;38939;47.824;14.642;2022-08-25T01:28:52;97116.97;;;18.12;86.79
39769;BME280;38939;47.824;14.642;2022-08-25T01:30:13;97113.50;;;18.11;86.69
39769;BME280;38939;47.824;14.642;2022-08-25T01:31:15;97119.06;;;18.10;87.10
39769;BME280;38939;47.824;14.642;2022-08-25T01:32:24;97117.22;;;18.10;87.27
39769;BME280;38939;47.824;14.642;2022-08-25T01:33:27;97111.94;;;18.10;87.48
39769;BME280;38939;47.824;14.642;2022-08-25T01:34:30;97114.56;;;18.10;87.26
39769;BME280;38939;47.824;14.642;2022-08-25T01:35:32;97116.16;;;18.11;87.56
39769;BME280;38939;47.824;14.642;2022-08-25T01:36:34;97105.34;;;18.13;87.37
39769;BME280;38939;47.824;14.642;2022-08-25T01:37:37;97114.63;;;18.15;87.11
39769;BME280;38939;47.824;14.642;2022-08-25T01:38:38;97108.53;;;18.15;87.27
39769;BME280;38939;47.824;14.642;2022-08-25T01:39:41;97109.59;;;18.14;87.43
39769;BME280;38939;47.824;14.642;2022-08-25T01:40:43;97111.41;;;18.13;86.85
39769;BME280;38939;47.824;14.642;2022-08-25T01:44:08;97110.63;;;18.13;86.99
39769;BME280;38939;47.824;14.642;2022-08-25T01:45:17;97104.06;;;18.15;87.19
39769;BME280;38939;47.824;14.642;2022-08-25T01:46:19;97107.50;;;18.16;87.02
39769;BME280;38939;47.824;14.642;2022-08-25T01:47:21;97108.31;;;18.16;87.08
39769;BME280;38939;47.824;14.642;2022-08-25T01:48:24;97105.34;;;18.13;87.32
39769;BME280;38939;47.824;14.642;2022-08-25T01:49:27;97104.81;;;18.11;87.42
39769;BME280;38939;47.824;14.642;2022-08-25T01:50:29;97111.94;;;18.10;87.53
39769;BME280;38939;47.824;14.642;2022-08-25T01:51:33;97105.59;;;18.11;87.48
39769;BME280;38939;47.824;14.642;2022-08-25T01:53:46;97104.81;;;18.11;87.51
39769;BME280;38939;47.824;14.642;2022-08-25T01:54:48;97102.94;;;18.11;87.62
39769;BME280;38939;47.824;14.642;2022-08-25T01:55:50;97100.06;;;18.13;87.46
39769;BME280;38939;47.824;14.642;2022-08-25T01:56:52;97099.03;;;18.14;87.46
39769;BME280;38939;47.824;14.642;2022-08-25T01:57:54;97096.94;;;18.16;87.27
39769;BME280;38939;47.824;14.642;2022-08-25T01:58:56;97096.94;;;18.16;87.32
39769;BME280;38939;47.824;14.642;2022-08-25T01:59:58;97097.13;;;18.09;87.52
39769;BME280;38939;47.824;14.642;2022-08-25T02:01:03;97092.34;;;18.06;87.80
39769;BME280;38939;47.824;14.642;2022-08-25T02:02:06;97098.66;;;18.05;87.38
39769;BME280;38939;47.824;14.642;2022-08-25T02:03:08;97096.81;;;18.06;87.33
39769;BME280;38939;47.824;14.642;2022-08-25T02:04:19;97105.53;;;18.06;87.46
39769;BME280;38939;47.824;14.642;2022-08-25T02:05:22;97099.69;;;18.04;87.43
39769;BME280;38939;47.824;14.642;2022-08-25T02:06:27;97096.00;;;18.05;87.59
39769;BME280;38939;47.824;14.642;2022-08-25T02:07:30;97099.19;;;18.07;87.62
39769;BME280;38939;47.824;14.642;2022-08-25T02:08:33;97103.94;;;18.05;87.88
39769;BME280;38939;47.824;14.642;2022-08-25T02:09:36;97100.25;;;18.06;87.98
39769;BME280;38939;47.824;14.642;2022-08-25T02:10:38;97097.38;;;18.08;87.99
39769;BME280;38939;47.824;14.642;2022-08-25T02:11:41;97101.84;;;18.07;87.64
39769;BME280;38939;47.824;14.642;2022-08-25T02:12:44;97095.28;;;18.10;87.76
39769;BME280;38939;47.824;14.642;2022-08-25T02:13:46;97101.38;;;18.10;87.56
39769;BME280;38939;47.824;14.642;2022-08-25T02:14:48;97094.00;;;18.12;87.32
39769;BME280;38939;47.824;14.642;2022-08-25T02:15:51;97095.84;;;18.12;87.52
39769;BME280;38939;47.824;14.642;2022-08-25T02:16:53;97093.44;;;18.10;87.71
39769;BME280;38939;47.824;14.642;2022-08-25T02:17:56;97095.28;;;18.10;87.44
39769;BME280;38939;47.824;14.642;2022-08-25T02:18:58;97095.84;;;18.12;87.40
39769;BME280;38939;47.824;14.642;2022-08-25T02:20:00;97095.84;;;18.12;87.68
39769;BME280;38939;47.824;14.642;2022-08-25T02:21:02;97095.03;;;18.11;87.49
39769;BME280;38939;47.824;14.642;2022-08-25T02:22:04;97095.03;;;18.11;87.59
39769;BME280;38939;47.824;14.642;2022-08-25T02:23:06;97090.00;;;18.10;87.76
39769;BME280;38939;47.824;14.642;2022-08-25T02:24:08;97091.81;;;18.09;87.33
39769;BME280;38939;47.824;14.642;2022-08-25T02:25:10;97094.47;;;18.09;86.93
39769;BME280;38939;47.824;14.642;2022-08-25T02:26:12;97094.47;;;18.09;87.35
39769;BME280;38939;47.824;14.642;2022-08-25T02:27:17;97088.41;;;18.09;87.28
39769;BME280;38939;47.824;14.642;2022-08-25T02:28:19;97082.09;;;18.10;87.88
39769;BME280;38939;47.824;14.642;2022-08-25T02:29:21;97092.75;;;17.98;88.30
39769;BME280;38939;47.824;14.642;2022-08-25T02:30:23;97089.56;;;17.96;88.28
39769;BME280;38939;47.824;14.642;2022-08-25T02:31:25;97087.47;;;17.98;88.53
39769;BME280;38939;47.824;14.642;2022-08-25T02:32:27;97084.34;;;18.01;88.49
39769;BME280;38939;47.824;14.642;2022-08-25T02:33:29;97085.69;;;18.04;88.28
39769;BME280;38939;47.824;14.642;2022-08-25T02:34:31;97086.25;;;18.06;88.18
39769;BME280;38939;47.824;14.642;2022-08-25T02:35:33;97086.00;;;18.07;88.25
39769;BME280;38939;47.824;14.642;2022-08-25T02:36:36;97086.81;;;18.08;88.17
39769;BME280;38939;47.824;14.642;2022-08-25T02:37:38;97084.72;;;18.10;88.00
39769;BME280;38939;47.824;14.642;2022-08-25T02:38:40;97085.28;;;18.12;88.08
39769;BME280;38939;47.824;14.642;2022-08-25T02:39:42;97082.38;;;18.13;87.82
39769;BME280;38939;47.824;14.642;2022-08-25T02:40:44;97088.22;;;18.15;87.54
39769;BME280;38939;47.824;14.642;2022-08-25T02:41:45;97087.41;;;18.15;87.40
39769;BME280;38939;47.824;14.642;2022-08-25T02:42:48;97088.22;;;18.15;87.61
39769;BME280;38939;47.824;14.642;2022-08-25T02:43:50;97082.13;;;18.15;87.42
39769;BME280;38939;47.824;14.642;2022-08-25T02:44:52;97082.94;;;18.15;87.27
39769;BME280;38939;47.824;14.642;2022-08-25T02:45:54;97079.72;;;18.13;87.32
39769;BME280;38939;47.824;14.642;2022-08-25T02:46:57;97073.09;;;18.11;86.98
39769;BME280;38939;47.824;14.642;2022-08-25T02:47:59;97075.50;;;18.12;87.14
39769;BME280;38939;47.824;14.642;2022-08-25T02:49:01;97074.72;;;18.12;87.42
39769;BME280;38939;47.824;14.642;2022-08-25T02:50:04;97081.81;;;18.11;87.28
39769;BME280;38939;47.824;14.642;2022-08-25T02:51:07;97070.47;;;18.11;87.51
39769;BME280;38939;47.824;14.642;2022-08-25T02:52:09;97078.16;;;18.12;87.40
39769;BME280;38939;47.824;14.642;2022-08-25T02:53:11;97073.91;;;18.11;87.34
39769;BME280;38939;47.824;14.642;2022-08-25T02:54:13;97064.94;;;18.12;87.54
39769;BME280;38939;47.824;14.642;2022-08-25T02:55:15;97071.25;;;18.11;88.01
39769;BME280;38939;47.824;14.642;2022-08-25T02:56:17;97068.63;;;18.11;88.08
39769;BME280;38939;47.824;14.642;2022-08-25T02:57:19;97064.72;;;18.14;88.03
39769;BME280;38939;47.824;14.642;2022-08-25T02:58:21;97066.53;;;18.13;87.92
39769;BME280;38939;47.824;14.642;2022-08-25T02:59:24;97062.06;;;18.14;88.08
39769;BME280;38939;47.824;14.642;2022-08-25T03:00:26;97066.53;;;18.13;88.22
39769;BME280;38939;47.824;14.642;2022-08-25T03:01:28;97061.25;;;18.13;87.78
39769;BME280;38939;47.824;14.642;2022-08-25T03:02:30;97063.09;;;18.13;87.73
39769;BME280;38939;47.824;14.642;2022-08-25T03:03:32;97063.09;;;18.13;87.89
39769;BME280;38939;47.824;14.642;2022-08-25T03:04:39;97066.78;;;18.12;87.97
39769;BME280;38939;47.824;14.642;2022-08-25T03:05:41;97068.06;;;18.09;87.82
39769;BME280;38939;47.824;14.642;2022-08-25T03:06:43;97067.28;;;18.09;87.78
39769;BME280;38939;47.824;14.642;2022-08-25T03:07:45;97064.63;;;18.09;88.06
39769;BME280;38939;47.824;14.642;2022-08-25T03:08:47;97058.31;;;18.10;87.97
39769;BME280;38939;47.824;14.642;2022-08-25T03:09:50;97068.63;;;18.11;87.97
39769;BME280;38939;47.824;14.642;2022-08-25T03:10:51;97062.00;;;18.09;87.85
39769;BME280;38939;47.824;14.642;2022-08-25T03:11:53;97071.53;;;18.10;88.06
39769;BME280;38939;47.824;14.642;2022-08-25T03:12:55;97068.06;;;18.09;88.14
39769;BME280;38939;47.824;14.642;2022-08-25T03:13:57;97072.56;;;18.09;87.86
39769;BME280;38939;47.824;14.642;2022-08-25T03:14:59;97073.34;;;18.09;87.86
39769;BME280;38939;47.824;14.642;2022-08-25T03:16:01;97070.47;;;18.11;87.82
39769;BME280;38939;47.824;14.642;2022-08-25T03:17:05;97077.59;;;18.10;87.71
39769;BME280;38939;47.824;14.642;2022-08-25T03:18:09;97076.53;;;18.11;87.55
39769;BME280;38939;47.824;14.642;2022-08-25T03:19:14;97074.97;;;18.10;87.44
39769;BME280;38939;47.824;14.642;2022-08-25T03:20:17;97076.53;;;18.11;87.47
39769;BME280;38939;47.824;14.642;2022-08-25T03:21:20;97075.50;;;18.12;87.50
39769;BME280;38939;47.824;14.642;2022-08-25T03:22:21;97078.94;;;18.13;87.22
39769;BME280;38939;47.824;14.642;2022-08-25T03:23:23;97076.31;;;18.13;87.22
39769;BME280;38939;47.824;14.642;2022-08-25T03:24:25;97079.72;;;18.13;86.93
39769;BME280;38939;47.824;14.642;2022-08-25T03:25:27;97078.94;;;18.13;87.06
39769;BME280;38939;47.824;14.642;2022-08-25T03:26:48;97079.19;;;18.11;87.23
39769;BME280;38939;47.824;14.642;2022-08-25T03:27:56;97085.28;;;18.12;86.99
39769;BME280;38939;47.824;14.642;2022-08-25T03:28:59;97079.72;;;18.13;87.08
39769;BME280;38939;47.824;14.642;2022-08-25T03:30:01;97076.06;;;18.14;87.22
39769;BME280;38939;47.824;14.642;2022-08-25T03:31:03;97075.50;;;18.12;87.09
39769;BME280;38939;47.824;14.642;2022-08-25T03:32:05;97077.09;;;18.13;86.92
39769;BME280;38939;47.824;14.642;2022-08-25T03:33:08;97077.63;;;18.15;87.11
39769;BME280;38939;47.824;14.642;2022-08-25T03:34:11;97078.47;;;18.16;87.15
39769;BME280;38939;47.824;14.642;2022-08-25T03:35:13;97079.72;;;18.13;87.49
39769;BME280;38939;47.824;14.642;2022-08-25T03:36:15;97074.44;;;18.13;87.45
39769;BME280;38939;47.824;14.642;2022-08-25T03:37:17;97073.66;;;18.13;87.75
39769;BME280;38939;47.824;14.642;2022-08-25T03:38:20;97073.09;;;18.11;87.72
39769;BME280;38939;47.824;14.642;2022-08-25T03:39:22;97072.88;;;18.12;87.61
39769;BME280;38939;47.824;14.642;2022-08-25T03:40:25;97064.16;;;18.12;87.64
39769;BME280;38939;47.824;14.642;2022-08-25T03:41:27;97069.16;;;18.13;87.73
39769;BME280;38939;47.824;14.642;2022-08-25T03:42:30;97072.88;;;18.12;88.39
39769;BME280;38939;47.824;14.642;2022-08-25T03:43:31;97071.25;;;18.11;88.44
39769;BME280;38939;47.824;14.642;2022-08-25T03:44:33;97072.06;;;18.12;88.33
39769;BME280;38939;47.824;14.642;2022-08-25T03:45:38;97066.78;;;18.12;88.36
39769;BME280;38939;47.824;14.642;2022-08-25T03:46:48;97069.16;;;18.13;88.19
39769;BME280;38939;47.824;14.642;2022-08-25T03:47:51;97064.94;;;18.12;87.98
39769;BME280;38939;47.824;14.642;2022-08-25T03:48:53;97061.25;;;18.13;87.99
39769;BME280;38939;47.824;14.642;2022-08-25T03:49:55;97063.88;;;18.13;87.79
39769;BME280;38939;47.824;14.642;2022-08-25T03:50:57;97066.78;;;18.12;87.84
39769;BME280;38939;47.824;14.642;2022-08-25T03:51:59;97063.34;;;18.11;87.83
39769;BME280;38939;47.824;14.642;2022-08-25T03:53:03;97057.50;;;18.09;87.73
39769;BME280;38939;47.824;14.642;2022-08-25T03:54:05;97057.78;;;18.08;88.02
39769;BME280;38939;47.824;14.642;2022-08-25T03:55:08;97057.22;;;18.06;87.94
39769;BME280;38939;47.824;14.642;2022-08-25T03:56:10;97057.47;;;18.04;87.94
39769;BME280;38939;47.824;14.642;2022-08-25T03:57:12;97056.63;;;18.04;87.75
39769;BME280;38939;47.824;14.642;2022-08-25T03:58:14;97058.47;;;18.03;87.92
39769;BME280;38939;47.824;14.642;2022-08-25T03:59:17;97064.31;;;18.05;87.60
39769;BME280;38939;47.824;14.642;2022-08-25T04:00:20;97059.59;;;18.07;87.42
39769;BME280;38939;47.824;14.642;2022-08-25T04:01:22;97057.22;;;18.06;87.59
39769;BME280;38939;47.824;14.642;2022-08-25T04:02:25;97059.84;;;18.06;87.33
39769;BME280;38939;47.824;14.642;2022-08-25T04:03:27;97054.81;;;18.04;87.27
39769;BME280;38939;47.824;14.642;2022-08-25T04:04:29;97057.47;;;18.04;87.24
39769;BME280;38939;47.824;14.642;2022-08-25T04:05:31;97053.75;;;18.05;87.48
39769;BME280;38939;47.824;14.642;2022-08-25T04:06:34;97053.75;;;18.05;87.64
39769;BME280;38939;47.824;14.642;2022-08-25T04:07:36;97053.75;;;18.05;87.55
39769;BME280;38939;47.824;14.642;2022-08-25T04:08:38;97052.72;;;18.06;87.62
39769;BME280;38939;47.824;14.642;2022-08-25T04:09:40;97060.88;;;18.05;87.80
39769;BME280;38939;47.824;14.642;2022-08-25T04:10:42;97061.69;;;18.05;88.00
39769;BME280;38939;47.824;14.642;2022-08-25T04:11:44;97058.25;;;18.05;87.79
39769;BME280;38939;47.824;14.642;2022-08-25T04:12:49;97055.59;;;18.05;87.62
39769;BME280;38939;47.824;14.642;2022-08-25T04:13:51;97053.75;;;18.05;87.49
39769;BME280;38939;47.824;14.642;2022-08-25T04:14:53;97056.94;;;18.07;87.59
39769;BME280;38939;47.824;14.642;2022-08-25T04:15:55;97057.22;;;18.06;87.72
39769;BME280;38939;47.824;14.642;2022-08-25T04:16:57;97061.44;;;18.07;87.53
39769;BME280;38939;47.824;14.642;2022-08-25T04:17:59;97058.56;;;18.08;87.37
39769;BME280;38939;47.824;14.642;2022-08-25T04:19:03;97059.34;;;18.09;87.40
39769;BME280;38939;47.824;14.642;2022-08-25T04:20:06;97048.53;;;18.10;87.45
39769;BME280;38939;47.824;14.642;2022-08-25T04:21:09;97054.84;;;18.09;87.41
39769;BME280;38939;47.824;14.642;2022-08-25T04:22:11;97063.84;;;18.08;87.58
39769;BME280;38939;47.824;14.642;2022-08-25T04:23:13;97060.34;;;18.03;87.79
39769;BME280;38939;47.824;14.642;2022-08-25T04:24:15;97062.41;;;18.01;87.85
39769;BME280;38939;47.824;14.642;2022-08-25T04:25:17;97061.31;;;17.96;87.75
39769;BME280;38939;47.824;14.642;2022-08-25T04:26:23;97060.53;;;17.96;87.98
39769;BME280;38939;47.824;14.642;2022-08-25T04:27:25;97066.34;;;17.98;87.96
39769;BME280;38939;47.824;14.642;2022-08-25T04:28:27;97064.75;;;17.97;88.20
39769;BME280;38939;47.824;14.642;2022-08-25T04:29:30;97067.16;;;17.98;88.03
39769;BME280;38939;47.824;14.642;2022-08-25T04:30:33;97067.94;;;17.99;88.10
39769;BME280;38939;47.824;14.642;2022-08-25T04:31:35;97068.72;;;17.99;88.14
39769;BME280;38939;47.824;14.642;2022-08-25T04:32:37;97062.91;;;17.97;88.09
39769;BME280;38939;47.824;14.642;2022-08-25T04:33:39;97058.91;;;17.95;88.25
39769;BME280;38939;47.824;14.642;2022-08-25T04:34:42;97057.88;;;17.96;88.18
39769;BME280;38939;47.824;14.642;2022-08-25T04:35:48;97065.50;;;17.92;88.06
39769;BME280;38939;47.824;14.642;2022-08-25T04:36:50;97059.97;;;17.94;87.88
39769;BME280;38939;47.824;14.642;2022-08-25T04:37:53;97058.91;;;17.95;88.05
39769;BME280;38939;47.824;14.642;2022-08-25T04:38:55;97054.97;;;17.97;88.16
39769;BME280;38939;47.824;14.642;2022-08-25T04:39:57;97066.09;;;17.99;88.20
39769;BME280;38939;47.824;14.642;2022-08-25T04:40:59;97058.72;;;18.02;88.18
39769;BME280;38939;47.824;14.642;2022-08-25T04:42:02;97066.16;;;18.05;87.93
39769;BME280;38939;47.824;14.642;2022-08-25T04:43:03;97065.94;;;18.06;87.74
39769;BME280;38939;47.824;14.642;2022-08-25T04:44:05;97071.75;;;18.08;87.80
39769;BME280;38939;47.824;14.642;2022-08-25T04:45:07;97073.34;;;18.09;87.59
39769;BME280;38939;47.824;14.642;2022-08-25T04:46:11;97068.63;;;18.11;87.49
39769;BME280;38939;47.824;14.642;2022-08-25T04:47:20;97071.25;;;18.11;87.43
39769;BME280;38939;47.824;14.642;2022-08-25T04:48:22;97074.16;;;18.10;87.69
39769;BME280;38939;47.824;14.642;2022-08-25T04:49:24;97071.53;;;18.10;87.41
39769;BME280;38939;47.824;14.642;2022-08-25T04:50:26;97073.09;;;18.11;87.56
39769;BME280;38939;47.824;14.642;2022-08-25T04:51:32;97071.75;;;18.08;87.58
39769;BME280;38939;47.824;14.642;2022-08-25T04:52:36;97070.16;;;18.07;87.87
39769;BME280;38939;47.824;14.642;2022-08-25T04:53:38;97072.56;;;18.09;87.78
39769;BME280;38939;47.824;14.642;2022-08-25T04:54:40;97073.34;;;18.09;87.98
39769;BME280;38939;47.824;14.642;2022-08-25T04:55:43;97069.69;;;18.10;87.79
39769;BME280;38939;47.824;14.642;2022-08-25T04:56:48;97067.81;;;18.11;87.76
39769;BME280;38939;47.824;14.642;2022-08-25T04:57:54;97065.97;;;18.11;87.93
39769;BME280;38939;47.824;14.642;2022-08-25T04:59:00;97069.44;;;18.12;87.80
39769;BME280;38939;47.824;14.642;2022-08-25T05:00:02;97064.41;;;18.10;87.84
39769;BME280;38939;47.824;14.642;2022-08-25T05:01:09;97060.47;;;18.13;88.08
39769;BME280;38939;47.824;14.642;2022-08-25T05:02:11;97064.72;;;18.14;88.05
39769;BME280;38939;47.824;14.642;2022-08-25T05:03:13;97064.44;;;18.15;87.88
39769;BME280;38939;47.824;14.642;2022-08-25T05:04:15;97069.72;;;18.15;87.94
39769;BME280;38939;47.824;14.642;2022-08-25T05:05:29;97058.59;;;18.13;87.89
39769;BME280;38939;47.824;14.642;2022-08-25T05:06:34;97064.41;;;18.10;88.14
39769;BME280;38939;47.824;14.642;2022-08-25T05:07:36;97058.00;;;18.06;88.35
39769;BME280;38939;47.824;14.642;2022-08-25T05:08:38;97061.69;;;18.05;88.65
39769;BME280;38939;47.824;14.642;2022-08-25T05:09:40;97060.66;;;18.06;88.41
39769;BME280;38939;47.824;14.642;2022-08-25T05:10:42;97055.28;;;18.01;88.58
39769;BME280;38939;47.824;14.642;2022-08-25T05:11:44;97054.97;;;17.97;88.78
39769;BME280;38939;47.824;14.642;2022-08-25T05:12:47;97057.38;;;17.99;88.90
39769;BME280;38939;47.824;14.642;2022-08-25T05:13:49;97051.06;;;18.00;88.79
39769;BME280;38939;47.824;14.642;2022-08-25T05:14:52;97052.88;;;17.99;88.71
39769;BME280;38939;47.824;14.642;2022-08-25T05:15:55;97054.75;;;17.99;89.17
39769;BME280;38939;47.824;14.642;2022-08-25T05:17:00;97058.72;;;18.02;88.81
39769;BME280;38939;47.824;14.642;2022-08-25T05:18:02;97047.91;;;18.03;88.60
39769;BME280;38939;47.824;14.642;2022-08-25T05:19:04;97052.19;;;18.04;88.72
39769;BME280;38939;47.824;14.642;2022-08-25T05:20:06;97044.50;;;18.03;88.43
39769;BME280;38939;47.824;14.642;2022-08-25T05:21:09;97038.97;;;18.04;88.62
39769;BME280;38939;47.824;14.642;2022-08-25T05:22:12;97043.19;;;18.05;88.80
39769;BME280;38939;47.824;14.642;2022-08-25T05:23:14;97050.63;;;18.08;88.41
39769;BME280;38939;47.824;14.642;2022-08-25T05:24:16;97042.72;;;18.08;88.35
39769;BME280;38939;47.824;14.642;2022-08-25T05:25:18;97046.38;;;18.07;88.44
39769;BME280;38939;47.824;14.642;2022-08-25T05:26:20;97043.25;;;18.10;88.31
39769;BME280;38939;47.824;14.642;2022-08-25T05:27:22;97035.91;;;18.12;88.16
39769;BME280;38939;47.824;14.642;2022-08-25T05:28:24;97041.19;;;18.12;88.05
39769;BME280;38939;47.824;14.642;2022-08-25T05:29:26;97037.19;;;18.10;88.05
39769;BME280;38939;47.824;14.642;2022-08-25T05:30:28;97036.63;;;18.08;88.06
39769;BME280;38939;47.824;14.642;2022-08-25T05:31:30;97038.47;;;18.07;88.13
39769;BME280;38939;47.824;14.642;2022-08-25T05:32:32;97034.78;;;18.08;88.46
39769;BME280;38939;47.824;14.642;2022-08-25T05:33:35;97039.28;;;18.08;88.32
39769;BME280;38939;47.824;14.642;2022-08-25T05:34:37;97038.47;;;18.07;88.35
39769;BME280;38939;47.824;14.642;2022-08-25T05:35:39;97042.72;;;18.08;88.48